createdAt,value
2022-11-15T00:01:10.664Z,20.58
2022-11-15T00:03:38.575Z,21.17
2022-11-15T00:06:06.978Z,17.50
2022-11-15T00:08:35.038Z,17.65
2022-11-15T00:11:04.617Z,17.65
2022-11-15T00:13:32.999Z,17.65
2022-11-15T00:16:03.117Z,16.63
2022-11-15T00:18:31.856Z,17.02
2022-11-15T00:21:06.020Z,17.00
2022-11-15T00:23:34.787Z,15.80
2022-11-15T00:26:02.916Z,14.93
2022-11-15T00:28:31.431Z,14.82
2022-11-15T00:31:03.952Z,14.57
2022-11-15T00:33:32.056Z,15.05
2022-11-15T00:36:05.013Z,14.50
2022-11-15T00:38:34.457Z,14.32
2022-11-15T00:41:07.878Z,14.20
2022-11-15T00:43:37.592Z,14.52
2022-11-15T00:46:09.000Z,13.00
2022-11-15T00:48:37.031Z,13.30
2022-11-15T00:51:05.108Z,13.13
2022-11-15T00:53:33.343Z,12.70
2022-11-15T00:56:01.510Z,12.98
2022-11-15T00:58:29.439Z,12.65
2022-11-15T01:00:57.396Z,12.15
2022-11-15T01:03:26.646Z,12.68
2022-11-15T01:05:54.508Z,12.43
2022-11-15T01:08:22.426Z,11.63
2022-11-15T01:10:50.341Z,12.02
2022-11-15T01:13:18.248Z,12.55
2022-11-15T01:15:46.187Z,11.25
2022-11-15T01:18:14.120Z,11.45
2022-11-15T01:20:44.889Z,11.32
2022-11-15T01:23:12.780Z,11.55
2022-11-15T01:25:40.686Z,11.32
2022-11-15T01:28:08.638Z,11.48
2022-11-15T01:30:37.992Z,11.35
2022-11-15T01:33:05.934Z,11.18
2022-11-15T01:35:34.087Z,11.57
2022-11-15T01:38:03.328Z,10.38
2022-11-15T01:40:31.241Z,11.13
2022-11-15T01:42:59.149Z,11.40
2022-11-15T01:45:27.464Z,10.48
2022-11-15T01:47:57.315Z,11.00
2022-11-15T01:50:30.318Z,10.68
2022-11-15T01:52:58.386Z,11.38
2022-11-15T01:55:29.786Z,11.05
2022-11-15T01:58:01.681Z,10.07
2022-11-15T02:00:31.149Z,10.70
2022-11-15T02:02:59.387Z,10.68
2022-11-15T02:05:27.622Z,10.40
2022-11-15T02:07:56.224Z,9.75
2022-11-15T02:10:25.766Z,9.85
2022-11-15T02:12:56.894Z,9.93
2022-11-15T02:15:28.993Z,10.75
2022-11-15T02:18:13.454Z,9.88
2022-11-15T02:20:57.012Z,9.85
2022-11-15T02:23:54.140Z,9.95
2022-11-15T02:26:55.092Z,10.43
2022-11-15T02:29:36.740Z,10.27
2022-11-15T02:32:09.910Z,9.63
2022-11-15T02:34:48.254Z,9.52
2022-11-15T02:37:24.300Z,8.70
2022-11-15T02:39:59.368Z,8.75
2022-11-15T02:42:48.393Z,8.10
2022-11-15T02:45:32.700Z,8.68
2022-11-15T02:48:05.595Z,8.40
2022-11-15T02:50:35.443Z,8.48
2022-11-15T02:53:03.831Z,8.45
2022-11-15T02:55:34.032Z,7.72
2022-11-15T02:58:16.996Z,8.18
2022-11-15T03:00:50.783Z,7.45
2022-11-15T03:03:33.031Z,7.97
2022-11-15T03:06:11.420Z,7.80
2022-11-15T03:08:56.164Z,7.45
2022-11-15T03:11:25.725Z,7.32
2022-11-15T03:14:00.600Z,7.90
2022-11-15T03:16:34.603Z,7.35
2022-11-15T03:19:08.880Z,6.82
2022-11-15T03:21:39.195Z,7.88
2022-11-15T03:24:09.871Z,6.80
2022-11-15T03:26:40.795Z,6.60
2022-11-15T03:29:15.015Z,7.47
2022-11-15T03:31:51.331Z,6.95
2022-11-15T03:34:27.671Z,6.93
2022-11-15T03:36:55.864Z,6.72
2022-11-15T03:39:24.781Z,6.57
2022-11-15T03:41:59.684Z,6.97
2022-11-15T03:44:38.680Z,6.80
2022-11-15T03:47:11.892Z,5.95
2022-11-15T03:49:46.316Z,6.43
2022-11-15T03:52:14.291Z,5.82
2022-11-15T03:54:51.060Z,5.72
2022-11-15T03:57:18.961Z,5.70
2022-11-15T03:59:46.870Z,6.22
2022-11-15T04:02:15.981Z,6.40
2022-11-15T04:04:45.226Z,5.70
2022-11-15T04:07:13.161Z,6.20
2022-11-15T04:09:55.252Z,5.93
2022-11-15T04:12:31.597Z,6.10
2022-11-15T04:15:10.306Z,5.50
2022-11-15T04:17:40.451Z,5.85
2022-11-15T04:20:30.578Z,5.57
2022-11-15T04:23:17.615Z,5.40
2022-11-15T04:25:46.392Z,5.43
2022-11-15T04:28:14.507Z,5.25
2022-11-15T04:30:42.521Z,5.93
2022-11-15T04:33:10.440Z,5.35
2022-11-15T04:35:39.695Z,5.40
2022-11-15T04:38:09.481Z,5.15
2022-11-15T04:40:38.140Z,5.55
2022-11-15T04:43:06.373Z,5.80
2022-11-15T04:45:34.347Z,5.22
2022-11-15T04:48:02.232Z,4.97
2022-11-15T04:50:30.163Z,5.80
2022-11-15T04:52:59.394Z,5.30
2022-11-15T04:55:27.282Z,5.00
2022-11-15T04:58:01.486Z,4.70
2022-11-15T05:00:30.376Z,5.75
2022-11-15T05:03:15.918Z,4.95
2022-11-15T05:05:43.979Z,5.70
2022-11-15T05:08:13.240Z,5.05
2022-11-15T05:10:41.175Z,5.13
2022-11-15T05:13:09.100Z,5.13
2022-11-15T05:15:36.988Z,5.03
2022-11-15T05:18:05.040Z,5.07
2022-11-15T05:20:33.230Z,4.75
2022-11-15T05:23:01.228Z,4.65
2022-11-15T05:25:30.544Z,4.53
2022-11-15T05:27:58.527Z,4.05
2022-11-15T05:30:26.538Z,5.13
2022-11-15T05:32:55.929Z,5.22
2022-11-15T05:35:32.899Z,4.72
2022-11-15T05:38:00.848Z,4.88
2022-11-15T05:40:32.081Z,5.13
2022-11-15T05:43:02.389Z,4.32
2022-11-15T05:45:30.878Z,5.00
2022-11-15T05:48:00.953Z,4.43
2022-11-15T05:50:29.540Z,4.53
2022-11-15T05:53:03.636Z,4.93
2022-11-15T05:55:34.355Z,4.45
2022-11-15T05:58:02.708Z,5.10
2022-11-15T06:00:30.935Z,4.78
2022-11-15T06:02:58.884Z,4.75
2022-11-15T06:05:26.826Z,4.00
2022-11-15T06:07:54.701Z,4.78
2022-11-15T06:10:22.562Z,4.43
2022-11-15T06:12:58.995Z,4.65
2022-11-15T06:15:27.303Z,4.25
2022-11-15T06:17:58.350Z,4.03
2022-11-15T06:20:26.499Z,4.22
2022-11-15T06:22:59.633Z,4.35
2022-11-15T06:25:27.779Z,4.30
2022-11-15T06:27:58.249Z,4.45
2022-11-15T06:30:27.064Z,4.47
2022-11-15T06:33:01.470Z,4.60
2022-11-15T06:35:29.818Z,3.85
2022-11-15T06:37:58.463Z,4.35
2022-11-15T06:40:26.350Z,4.25
2022-11-15T06:42:59.859Z,4.25
2022-11-15T06:45:28.300Z,4.15
2022-11-15T06:47:56.293Z,4.15
2022-11-15T06:50:24.187Z,4.03
2022-11-15T06:52:52.160Z,3.75
2022-11-15T06:55:20.078Z,4.20
2022-11-15T06:57:52.007Z,3.63
2022-11-15T07:00:23.209Z,4.55
2022-11-15T07:02:51.295Z,4.00
2022-11-15T07:05:19.373Z,3.58
2022-11-15T07:07:54.429Z,3.70
2022-11-15T07:10:22.697Z,3.65
2022-11-15T07:12:51.097Z,3.35
2022-11-15T07:15:21.331Z,4.05
2022-11-15T07:17:49.368Z,3.67
2022-11-15T07:20:18.250Z,3.83
2022-11-15T07:22:46.857Z,4.15
2022-11-15T07:25:14.871Z,3.90
2022-11-15T07:27:42.934Z,3.60
2022-11-15T07:30:15.309Z,3.63
2022-11-15T07:32:44.859Z,3.97
2022-11-15T07:35:12.797Z,3.72
2022-11-15T07:37:40.662Z,3.50
2022-11-15T07:40:10.371Z,3.72
2022-11-15T07:42:56.856Z,3.50
2022-11-15T07:45:26.715Z,3.20
2022-11-15T07:47:57.294Z,3.40
2022-11-15T07:50:26.003Z,2.80
2022-11-15T07:52:57.426Z,3.55
2022-11-15T07:55:25.807Z,3.08
2022-11-15T07:57:53.769Z,3.08
2022-11-15T08:00:21.957Z,2.72
2022-11-15T08:02:49.950Z,3.17
2022-11-15T08:05:19.339Z,2.63
2022-11-15T08:07:47.204Z,3.00
2022-11-15T08:10:17.634Z,2.78
2022-11-15T08:12:45.582Z,2.88
2022-11-15T08:15:13.507Z,2.90
2022-11-15T08:17:41.450Z,2.70
2022-11-15T08:20:10.547Z,2.67
2022-11-15T08:22:39.795Z,3.10
2022-11-15T08:25:08.431Z,2.97
2022-11-15T08:27:36.359Z,2.75
2022-11-15T08:30:05.781Z,2.70
2022-11-15T08:32:33.688Z,2.78
2022-11-15T08:35:01.633Z,2.50
2022-11-15T08:37:29.576Z,2.60
2022-11-15T08:39:58.881Z,2.45
2022-11-15T08:42:26.783Z,2.70
2022-11-15T08:44:54.682Z,2.60
2022-11-15T08:47:22.566Z,2.40
2022-11-15T08:49:50.493Z,2.53
2022-11-15T08:52:18.410Z,2.63
2022-11-15T08:54:46.321Z,2.60
2022-11-15T08:57:15.645Z,2.50
2022-11-15T08:59:43.597Z,2.25
2022-11-15T09:02:14.621Z,2.45
2022-11-15T09:04:43.661Z,2.03
2022-11-15T09:07:13.717Z,2.20
2022-11-15T09:09:42.126Z,2.45
2022-11-15T09:12:10.748Z,2.42
2022-11-15T09:14:40.025Z,2.08
2022-11-15T09:17:10.436Z,1.90
2022-11-15T09:19:38.810Z,2.17
2022-11-15T09:22:08.751Z,1.60
2022-11-15T09:24:36.778Z,1.80
2022-11-15T09:27:04.894Z,1.98
2022-11-15T09:29:32.827Z,1.77
2022-11-15T09:32:02.163Z,1.70
2022-11-15T09:34:30.047Z,1.92
2022-11-15T09:36:58.004Z,1.70
2022-11-15T09:39:25.909Z,1.42
2022-11-15T09:42:06.915Z,1.42
2022-11-15T09:44:44.041Z,1.70
2022-11-15T09:47:35.345Z,1.77
2022-11-15T09:50:10.752Z,1.70
2022-11-15T09:52:41.405Z,1.40
2022-11-15T09:55:12.095Z,1.88
2022-11-15T09:57:45.869Z,1.70
2022-11-15T10:00:48.948Z,1.60
2022-11-15T10:03:14.205Z,1.50
2022-11-15T10:05:43.896Z,1.40
2022-11-15T10:08:30.842Z,1.45
2022-11-15T10:11:30.552Z,1.80
2022-11-15T10:13:50.870Z,1.77
2022-11-15T10:16:47.964Z,1.73
2022-11-15T10:19:28.144Z,1.42
2022-11-15T10:22:07.767Z,1.60
2022-11-15T10:24:39.244Z,2.00
2022-11-15T10:27:12.635Z,1.80
2022-11-15T10:29:46.155Z,1.50
2022-11-15T10:32:14.838Z,1.17
2022-11-15T10:34:44.227Z,1.35
2022-11-15T10:37:12.145Z,1.40
2022-11-15T10:39:40.285Z,1.80
2022-11-15T10:42:19.584Z,1.45
2022-11-15T10:44:47.702Z,1.50
2022-11-15T10:47:28.227Z,1.50
2022-11-15T10:50:02.780Z,1.55
2022-11-15T10:52:32.655Z,1.42
2022-11-15T10:55:05.658Z,1.67
2022-11-15T10:57:36.840Z,1.40
2022-11-15T11:00:08.753Z,1.60
2022-11-15T11:02:39.380Z,1.42
2022-11-15T11:05:30.388Z,1.30
2022-11-15T11:08:00.470Z,1.50
2022-11-15T11:10:50.519Z,1.50
2022-11-15T11:13:23.898Z,1.33
2022-11-15T11:16:02.081Z,1.40
2022-11-15T11:18:36.589Z,1.45
2022-11-15T11:21:12.753Z,1.30
2022-11-15T11:23:50.538Z,1.45
2022-11-15T11:26:34.639Z,1.52
2022-11-15T11:29:10.074Z,1.27
2022-11-15T11:31:48.466Z,1.20
2022-11-15T11:34:27.174Z,1.20
2022-11-15T11:37:05.463Z,1.35
2022-11-15T11:39:45.248Z,1.23
2022-11-15T11:42:19.607Z,1.20
2022-11-15T11:44:59.977Z,1.25
2022-11-15T11:47:34.610Z,1.15
2022-11-15T11:50:08.045Z,1.10
2022-11-15T11:52:50.725Z,1.80
2022-11-15T11:55:25.007Z,1.27
2022-11-15T11:57:58.864Z,1.83
2022-11-15T12:00:29.522Z,1.20
2022-11-15T12:03:07.439Z,1.30
2022-11-15T12:05:41.467Z,1.20
2022-11-15T12:08:24.380Z,1.30
2022-11-15T12:10:59.406Z,1.40
2022-11-15T12:16:06.107Z,1.50
2022-11-15T12:18:37.478Z,1.02
2022-11-15T12:21:09.563Z,1.10
2022-11-15T12:23:43.594Z,1.25
2022-11-15T12:26:19.431Z,1.20
2022-11-15T12:29:06.375Z,1.17
2022-11-15T12:31:42.211Z,1.38
2022-11-15T12:34:31.854Z,1.10
2022-11-15T12:36:59.757Z,1.25
2022-11-15T12:40:03.690Z,1.13
2022-11-15T12:42:44.244Z,1.20
2022-11-15T12:45:28.091Z,0.93
2022-11-15T12:47:58.189Z,0.98
2022-11-15T12:50:58.956Z,0.90
2022-11-15T12:53:31.100Z,0.98
2022-11-15T12:56:24.902Z,1.23
2022-11-15T12:58:57.440Z,1.10
2022-11-15T13:01:59.223Z,2.00
2022-11-15T13:04:31.202Z,1.00
2022-11-15T13:07:01.676Z,1.10
2022-11-15T13:10:02.979Z,0.80
2022-11-15T13:12:59.817Z,0.95
2022-11-15T13:15:57.749Z,1.25
2022-11-15T13:18:38.667Z,1.00
2022-11-15T13:21:37.973Z,1.00
2022-11-15T13:24:06.750Z,1.30
2022-11-15T13:26:34.761Z,1.30
2022-11-15T13:29:03.071Z,1.50
2022-11-15T13:31:37.825Z,1.67
2022-11-15T13:37:31.856Z,2.60
2022-11-15T13:40:20.939Z,2.50
2022-11-15T13:42:48.925Z,2.70
2022-11-15T13:45:20.188Z,3.88
2022-11-15T13:47:56.979Z,2.58
2022-11-15T13:50:29.938Z,2.95
2022-11-15T13:53:02.280Z,2.90
2022-11-15T13:55:33.657Z,3.58
2022-11-15T13:58:06.833Z,3.25
2022-11-15T14:00:38.575Z,3.67
2022-11-15T14:03:23.065Z,3.17
2022-11-15T14:06:07.342Z,3.57
2022-11-15T14:08:36.602Z,3.08
2022-11-15T14:11:25.364Z,3.55
2022-11-15T14:14:14.700Z,3.58
2022-11-15T14:16:44.314Z,5.07
2022-11-15T14:19:34.656Z,3.50
2022-11-15T14:22:21.391Z,3.17
2022-11-15T14:25:05.104Z,3.85
2022-11-15T14:27:33.392Z,3.13
2022-11-15T14:30:01.999Z,3.83
2022-11-15T14:32:31.493Z,4.05
2022-11-15T14:35:00.810Z,3.92
2022-11-15T14:37:32.403Z,3.22
2022-11-15T14:40:00.446Z,3.60
2022-11-15T14:42:28.384Z,3.75
2022-11-15T14:44:56.428Z,3.17
2022-11-15T14:47:24.396Z,3.58
2022-11-15T14:49:52.433Z,3.35
2022-11-15T14:52:32.295Z,3.58
2022-11-15T14:55:04.170Z,3.35
2022-11-15T14:57:32.308Z,3.00
2022-11-15T15:00:00.198Z,3.65
2022-11-15T15:02:29.357Z,3.10
2022-11-15T15:05:01.892Z,4.03
2022-11-15T15:07:30.198Z,3.03
2022-11-15T15:10:17.747Z,2.95
2022-11-15T15:12:47.576Z,2.92
2022-11-15T15:15:17.924Z,3.60
2022-11-15T15:17:46.035Z,3.05
2022-11-15T15:20:13.924Z,3.03
2022-11-15T15:22:42.038Z,3.47
2022-11-15T15:25:24.238Z,3.28
2022-11-15T15:27:53.534Z,3.08
2022-11-15T15:30:21.838Z,2.55
2022-11-15T15:32:49.881Z,2.65
2022-11-15T15:35:19.251Z,2.90
2022-11-15T15:37:48.770Z,3.10
2022-11-15T15:40:18.975Z,3.17
2022-11-15T15:42:46.927Z,3.22
2022-11-15T15:45:16.887Z,3.00
2022-11-15T15:47:45.736Z,2.80
2022-11-15T15:50:22.666Z,3.08
2022-11-15T15:52:50.941Z,2.45
2022-11-15T15:55:18.959Z,2.85
2022-11-15T15:57:47.053Z,2.78
2022-11-15T16:00:17.651Z,2.70
2022-11-15T16:02:45.882Z,2.33
2022-11-15T16:05:14.174Z,3.22
2022-11-15T16:07:44.105Z,2.95
2022-11-15T16:10:20.659Z,2.63
2022-11-15T16:12:48.892Z,2.33
2022-11-15T16:15:18.670Z,2.53
2022-11-15T16:17:50.307Z,2.15
2022-11-15T16:20:35.377Z,2.00
2022-11-15T16:23:08.737Z,2.65
2022-11-15T16:25:41.794Z,2.28
2022-11-15T16:28:21.436Z,2.63
2022-11-15T16:30:56.592Z,2.72
2022-11-15T16:33:25.273Z,2.25
2022-11-15T16:35:53.214Z,2.25
2022-11-15T16:38:21.066Z,2.55
2022-11-15T16:40:49.168Z,2.25
2022-11-15T16:43:17.179Z,2.25
2022-11-15T16:45:45.456Z,2.42
2022-11-15T16:48:25.995Z,1.90
2022-11-15T16:50:57.764Z,2.63
2022-11-15T16:53:26.276Z,2.00
2022-11-15T16:55:54.539Z,2.45
2022-11-15T16:58:22.518Z,2.08
2022-11-15T17:00:53.093Z,1.92
2022-11-15T17:03:24.068Z,2.08
2022-11-15T17:05:52.506Z,2.10
2022-11-15T17:08:21.907Z,2.10
2022-11-15T17:10:50.172Z,2.55
2022-11-15T17:13:18.063Z,2.17
2022-11-15T17:15:45.976Z,1.80
2022-11-15T17:18:15.477Z,2.92
2022-11-15T17:20:44.884Z,2.03
2022-11-15T17:23:15.371Z,2.20
2022-11-15T17:25:43.351Z,2.92
2022-11-15T17:28:11.546Z,2.35
2022-11-15T17:30:42.702Z,2.22
2022-11-15T17:33:10.589Z,2.40
2022-11-15T17:35:38.478Z,1.80
2022-11-15T17:38:07.682Z,2.13
2022-11-15T17:40:35.561Z,2.13
2022-11-15T17:43:03.553Z,1.60
2022-11-15T17:45:31.423Z,1.70
2022-11-15T17:47:59.305Z,2.30
2022-11-15T17:50:27.170Z,1.58
2022-11-15T17:52:55.039Z,2.05
2022-11-15T17:55:24.292Z,1.85
2022-11-15T17:57:52.186Z,1.90
2022-11-15T18:00:21.647Z,1.67
2022-11-15T18:02:49.551Z,2.10
2022-11-15T18:05:17.439Z,1.70
2022-11-15T18:07:45.335Z,1.90
2022-11-15T18:10:13.208Z,1.42
2022-11-15T18:12:42.435Z,1.70
2022-11-15T18:15:10.597Z,2.13
2022-11-15T18:17:38.493Z,2.00
2022-11-15T18:20:07.450Z,1.85
2022-11-15T18:22:35.358Z,1.92
2022-11-15T18:25:03.251Z,1.70
2022-11-15T18:27:31.251Z,2.00
2022-11-15T18:30:00.524Z,2.10
2022-11-15T18:32:28.867Z,1.50
2022-11-15T18:34:56.770Z,1.60
2022-11-15T18:37:24.652Z,1.63
2022-11-15T18:39:54.036Z,1.88
2022-11-15T18:42:22.099Z,1.75
2022-11-15T18:44:49.982Z,1.83
2022-11-15T18:47:19.224Z,2.10
2022-11-15T18:49:47.182Z,1.27
2022-11-15T18:52:15.071Z,1.70
2022-11-15T18:54:42.974Z,1.48
2022-11-15T18:57:10.844Z,1.67
2022-11-15T18:59:38.740Z,1.75
2022-11-15T19:02:06.641Z,1.83
2022-11-15T19:04:35.877Z,1.42
2022-11-15T19:07:03.803Z,1.25
2022-11-15T19:09:32.857Z,1.92
2022-11-15T19:12:00.976Z,1.58
2022-11-15T19:14:29.342Z,1.48
2022-11-15T19:16:57.351Z,1.42
2022-11-15T19:19:28.186Z,1.23
2022-11-15T19:21:58.288Z,1.30
2022-11-15T19:24:27.057Z,1.98
2022-11-15T19:26:55.782Z,1.52
2022-11-15T19:29:23.693Z,1.63
2022-11-15T19:31:51.623Z,1.60
2022-11-15T19:34:19.494Z,1.33
2022-11-15T19:36:47.433Z,1.90
2022-11-15T19:39:18.424Z,1.02
2022-11-15T19:41:46.998Z,1.60
2022-11-15T19:44:15.581Z,1.38
2022-11-15T19:46:44.194Z,1.30
2022-11-15T19:49:12.335Z,1.40
2022-11-15T19:51:42.513Z,1.58
2022-11-15T19:54:11.043Z,1.45
2022-11-15T19:56:40.745Z,1.30
2022-11-15T19:59:11.452Z,1.48
2022-11-15T20:01:39.713Z,1.60
2022-11-15T20:04:09.825Z,1.92
2022-11-15T20:06:39.482Z,1.58
2022-11-15T20:09:07.511Z,1.60
2022-11-15T20:11:37.843Z,1.75
2022-11-15T20:14:08.865Z,1.60
2022-11-15T20:16:36.854Z,1.50
2022-11-15T20:19:04.909Z,1.45
2022-11-15T20:21:32.863Z,1.67
2022-11-15T20:24:00.914Z,1.70
2022-11-15T20:26:29.194Z,1.50
2022-11-15T20:29:01.081Z,1.50
2022-11-15T20:31:31.448Z,1.30
2022-11-15T20:33:59.625Z,1.40
2022-11-15T20:36:27.851Z,1.58
2022-11-15T20:38:58.353Z,1.73
2022-11-15T20:41:26.764Z,1.55
2022-11-15T20:43:55.043Z,1.27
2022-11-15T20:46:23.216Z,1.63
2022-11-15T20:48:52.428Z,1.10
2022-11-15T20:51:21.381Z,1.35
2022-11-15T20:53:49.981Z,1.67
2022-11-15T20:56:19.522Z,1.30
2022-11-15T20:58:50.172Z,1.40
2022-11-15T21:01:23.023Z,1.20
2022-11-15T21:03:53.013Z,1.35
2022-11-15T21:06:21.105Z,1.30
2022-11-15T21:09:06.749Z,1.40
2022-11-15T21:11:52.138Z,1.35
2022-11-15T21:16:47.933Z,1.10
2022-11-15T21:19:17.326Z,1.00
2022-11-15T21:21:45.208Z,1.25
2022-11-15T21:24:13.573Z,1.25
2022-11-15T21:26:41.601Z,1.10
2022-11-15T21:29:09.624Z,1.50
2022-11-15T21:31:37.517Z,1.35
2022-11-15T21:34:07.214Z,1.45
2022-11-15T21:36:36.583Z,1.60
2022-11-15T21:39:05.303Z,1.48
2022-11-15T21:41:34.820Z,4.40
2022-11-15T21:44:04.133Z,3.78
2022-11-15T21:46:33.361Z,5.15
2022-11-15T21:49:01.493Z,6.32
2022-11-15T21:51:29.512Z,7.85
2022-11-15T21:53:59.283Z,8.93
2022-11-15T21:56:28.558Z,9.60
2022-11-15T21:58:57.584Z,10.00
2022-11-15T22:01:46.057Z,12.38
2022-11-15T22:04:14.045Z,12.07
2022-11-15T22:06:42.028Z,14.43
2022-11-15T22:09:11.508Z,14.98
2022-11-15T22:11:39.465Z,16.25
2022-11-15T22:14:07.625Z,16.90
2022-11-15T22:16:35.613Z,17.85
2022-11-15T22:19:03.637Z,20.00
2022-11-15T22:21:31.837Z,20.77
2022-11-15T22:23:59.889Z,22.95
2022-11-15T22:26:29.322Z,22.38
2022-11-15T22:28:57.342Z,22.85
2022-11-15T22:31:25.372Z,25.02
2022-11-15T22:33:53.361Z,25.65
2022-11-15T22:36:21.444Z,26.17
2022-11-15T22:38:49.454Z,29.33
2022-11-15T22:41:17.568Z,30.50
2022-11-15T22:43:48.219Z,33.28
2022-11-15T22:46:16.306Z,32.22
2022-11-15T22:48:44.319Z,32.80
2022-11-15T22:51:12.349Z,35.10
2022-11-15T22:53:40.385Z,35.38
2022-11-15T22:56:08.903Z,35.50
2022-11-15T22:58:37.379Z,39.17
2022-11-15T23:01:07.547Z,38.08
2022-11-15T23:03:36.002Z,39.33
2022-11-15T23:06:05.579Z,42.63
2022-11-15T23:08:33.896Z,44.03
2022-11-15T23:11:20.283Z,43.97
2022-11-15T23:18:51.978Z,47.45
2022-11-15T23:21:41.008Z,50.47
2022-11-15T23:24:09.014Z,47.28
2022-11-15T23:26:35.607Z,51.55
2022-11-15T23:29:02.356Z,51.88
2022-11-15T23:31:47.682Z,54.50
2022-11-15T23:34:22.292Z,55.20
2022-11-15T23:36:50.460Z,57.13
2022-11-15T23:39:18.485Z,58.78
2022-11-15T23:41:46.457Z,56.33
2022-11-15T23:44:14.476Z,58.20
2022-11-15T23:46:42.467Z,58.97
2022-11-15T23:49:10.536Z,61.40
2022-11-15T23:51:39.890Z,65.70
2022-11-15T23:54:08.114Z,66.43
2022-11-15T23:56:36.412Z,66.32
2022-11-15T23:59:05.029Z,67.68
